createdAt,value
2017-02-28T00:00:53.381Z,0
2017-02-28T00:02:04.379Z,0
2017-02-28T00:03:14.743Z,0
2017-02-28T00:04:25.086Z,0
2017-02-28T00:05:35.448Z,0
2017-02-28T00:06:45.397Z,0
2017-02-28T00:07:55.608Z,0
2017-02-28T00:09:05.963Z,0
2017-02-28T00:10:15.936Z,0
2017-02-28T00:11:26.289Z,0
2017-02-28T00:12:37.032Z,0
2017-02-28T00:13:48.033Z,0
2017-02-28T00:14:58.411Z,0
2017-02-28T00:16:08.760Z,0
2017-02-28T00:17:18.725Z,0
2017-02-28T00:18:29.063Z,0
2017-02-28T00:19:38.484Z,0
2017-02-28T00:20:48.831Z,0
2017-02-28T00:21:59.219Z,0
2017-02-28T00:23:09.605Z,0
2017-02-28T00:24:20.338Z,0
2017-02-28T00:25:30.953Z,0
2017-02-28T00:26:41.705Z,0
2017-02-28T00:27:52.061Z,0
2017-02-28T00:29:02.812Z,0
2017-02-28T00:30:12.786Z,0
2017-02-28T00:31:23.394Z,0
2017-02-28T00:32:33.356Z,0
2017-02-28T00:33:43.311Z,0
2017-02-28T00:34:53.672Z,0
2017-02-28T00:36:04.028Z,0
2017-02-28T00:37:15.039Z,0
2017-02-28T00:38:25.797Z,0
2017-02-28T00:39:36.162Z,0
2017-02-28T00:40:46.143Z,0
2017-02-28T00:41:55.705Z,0
2017-02-28T00:43:06.319Z,0
2017-02-28T00:44:17.072Z,0
2017-02-28T00:45:27.814Z,0
2017-02-28T00:46:38.558Z,0
2017-02-28T00:47:48.939Z,0
2017-02-28T00:48:59.529Z,0
2017-02-28T00:50:10.288Z,0
2017-02-28T00:51:20.658Z,0
2017-02-28T00:52:30.632Z,0
2017-02-28T00:53:40.988Z,0
2017-02-28T00:54:51.193Z,0
2017-02-28T00:56:01.551Z,0
2017-02-28T00:57:11.909Z,0
2017-02-28T00:58:22.662Z,0
2017-02-28T00:59:33.407Z,0
2017-02-28T01:00:44.409Z,0
2017-02-28T01:01:55.190Z,0
2017-02-28T01:03:05.568Z,0
2017-02-28T01:04:16.320Z,0
2017-02-28T01:05:27.067Z,0
2017-02-28T01:06:37.693Z,0
2017-02-28T01:07:48.063Z,0
2017-02-28T01:08:58.015Z,0
2017-02-28T01:10:08.780Z,0
2017-02-28T01:11:19.155Z,0
2017-02-28T01:12:29.343Z,0
2017-02-28T01:13:40.111Z,0
2017-02-28T01:14:50.473Z,0
2017-02-28T01:16:00.444Z,0
2017-02-28T01:17:10.415Z,0
2017-02-28T01:18:20.640Z,0
2017-02-28T01:19:31.418Z,0
2017-02-28T01:20:41.388Z,0
2017-02-28T01:21:51.337Z,0
2017-02-28T01:23:02.108Z,0
2017-02-28T01:24:12.723Z,0
2017-02-28T01:25:23.067Z,0
2017-02-28T01:26:32.617Z,0
2017-02-28T01:27:42.559Z,0
2017-02-28T01:28:52.906Z,0
2017-02-28T01:30:03.118Z,0
2017-02-28T01:31:13.849Z,0
2017-02-28T01:32:23.804Z,0
2017-02-28T01:33:33.765Z,0
2017-02-28T01:34:44.547Z,0
2017-02-28T01:35:55.549Z,0
2017-02-28T01:37:05.507Z,0
2017-02-28T01:38:16.245Z,0
2017-02-28T01:39:26.217Z,0
2017-02-28T01:40:36.579Z,0
2017-02-28T01:41:47.584Z,0
2017-02-28T01:42:57.935Z,0
2017-02-28T01:44:08.285Z,0
2017-02-28T01:45:18.674Z,0
2017-02-28T01:46:29.039Z,0
2017-02-28T01:47:40.035Z,0
2017-02-28T01:48:50.394Z,0
2017-02-28T01:50:00.745Z,0
2017-02-28T01:51:11.100Z,0
2017-02-28T01:52:21.830Z,0
2017-02-28T01:53:32.846Z,0
2017-02-28T01:54:42.812Z,0
2017-02-28T01:55:53.593Z,0
2017-02-28T01:57:03.951Z,0
2017-02-28T01:58:14.306Z,0
2017-02-28T01:59:25.308Z,0
2017-02-28T02:00:35.648Z,0
2017-02-28T02:01:45.992Z,0
2017-02-28T02:02:56.736Z,0
2017-02-28T02:04:07.519Z,0
2017-02-28T02:05:18.134Z,0
2017-02-28T02:06:28.501Z,0
2017-02-28T02:07:38.466Z,0
2017-02-28T02:08:48.833Z,0
2017-02-28T02:09:59.177Z,0
2017-02-28T02:11:10.172Z,0
2017-02-28T02:12:20.901Z,0
2017-02-28T02:13:30.878Z,0
2017-02-28T02:14:41.224Z,0
2017-02-28T02:15:51.574Z,0
2017-02-28T02:17:02.209Z,0
2017-02-28T02:18:11.800Z,0
2017-02-28T02:19:20.968Z,0
2017-02-28T02:20:31.323Z,0
2017-02-28T02:21:41.272Z,0
2017-02-28T02:22:51.522Z,0
2017-02-28T02:24:01.852Z,0
2017-02-28T02:25:12.206Z,0
2017-02-28T02:26:22.569Z,0
2017-02-28T02:27:32.920Z,0
2017-02-28T02:28:43.925Z,0
2017-02-28T02:29:53.857Z,0
2017-02-28T02:31:04.618Z,0
2017-02-28T02:32:14.974Z,0
2017-02-28T02:33:25.345Z,0
2017-02-28T02:34:36.353Z,0
2017-02-28T02:35:47.095Z,0
2017-02-28T02:36:57.451Z,0
2017-02-28T02:38:07.800Z,0
2017-02-28T02:39:17.765Z,0
2017-02-28T02:40:28.357Z,0
2017-02-28T02:41:38.696Z,0
2017-02-28T02:42:49.047Z,0
2017-02-28T02:43:59.796Z,0
2017-02-28T02:45:09.748Z,0
2017-02-28T02:46:20.736Z,0
2017-02-28T02:47:31.104Z,0
2017-02-28T02:48:41.445Z,0
2017-02-28T02:49:51.409Z,0
2017-02-28T02:51:00.986Z,0
2017-02-28T02:52:11.594Z,0
2017-02-28T02:53:21.936Z,0
2017-02-28T02:54:31.888Z,0
2017-02-28T02:55:42.653Z,0
2017-02-28T02:56:52.248Z,0
2017-02-28T02:58:03.284Z,0
2017-02-28T02:59:14.026Z,0
2017-02-28T03:00:24.378Z,0
2017-02-28T03:01:34.759Z,0
2017-02-28T03:02:45.504Z,0
2017-02-28T03:03:56.503Z,0
2017-02-28T03:05:06.846Z,0
2017-02-28T03:06:16.794Z,0
2017-02-28T03:07:26.759Z,0
2017-02-28T03:08:36.324Z,0
2017-02-28T03:09:47.313Z,0
2017-02-28T03:10:58.070Z,0
2017-02-28T03:12:08.820Z,0
2017-02-28T03:13:19.186Z,0
2017-02-28T03:14:29.127Z,0
2017-02-28T03:15:39.783Z,0
2017-02-28T03:16:50.544Z,0
2017-02-28T03:18:00.112Z,0
2017-02-28T03:19:10.848Z,0
2017-02-28T03:20:21.625Z,0
2017-02-28T03:21:32.216Z,0
2017-02-28T03:22:42.960Z,0
2017-02-28T03:23:53.718Z,0
2017-02-28T03:25:04.070Z,0
2017-02-28T03:26:14.419Z,0
2017-02-28T03:27:24.235Z,0
2017-02-28T03:28:34.618Z,0
2017-02-28T03:29:44.963Z,0
2017-02-28T03:30:55.332Z,0
2017-02-28T03:32:05.756Z,0
2017-02-28T03:33:16.799Z,0
2017-02-28T03:34:27.543Z,0
2017-02-28T03:35:38.286Z,0
2017-02-28T03:36:48.230Z,0
2017-02-28T03:37:58.963Z,0
2017-02-28T03:39:09.564Z,0
2017-02-28T03:40:19.922Z,0
2017-02-28T03:41:30.270Z,0
2017-02-28T03:42:40.632Z,0
2017-02-28T03:43:51.096Z,0
2017-02-28T03:45:02.156Z,0
2017-02-28T03:46:11.708Z,0
2017-02-28T03:47:22.060Z,0
2017-02-28T03:48:32.812Z,0
2017-02-28T03:49:42.760Z,0
2017-02-28T03:50:52.571Z,0
2017-02-28T03:52:02.917Z,0
2017-02-28T03:53:12.511Z,0
2017-02-28T03:54:22.475Z,0
2017-02-28T03:55:32.037Z,0
2017-02-28T03:56:42.235Z,0
2017-02-28T03:57:52.184Z,0
2017-02-28T03:59:02.533Z,0
2017-02-28T04:00:13.288Z,0
2017-02-28T04:01:23.640Z,0
2017-02-28T04:02:34.631Z,0
2017-02-28T04:03:44.597Z,0
2017-02-28T04:04:55.335Z,0
2017-02-28T04:06:05.708Z,0
2017-02-28T04:07:15.685Z,0
2017-02-28T04:08:26.334Z,0
2017-02-28T04:09:36.277Z,0
2017-02-28T04:10:47.013Z,0
2017-02-28T04:11:57.387Z,0
2017-02-28T04:13:07.736Z,0
2017-02-28T04:14:18.796Z,0
2017-02-28T04:15:29.157Z,0
2017-02-28T04:16:39.893Z,0
2017-02-28T04:17:50.233Z,0
2017-02-28T04:19:00.176Z,0
2017-02-28T04:20:10.834Z,0
2017-02-28T04:21:21.186Z,0
2017-02-28T04:22:31.567Z,0
2017-02-28T04:23:41.941Z,0
2017-02-28T04:24:52.322Z,0
2017-02-28T04:26:03.340Z,0
2017-02-28T04:27:13.323Z,0
2017-02-28T04:28:23.663Z,0
2017-02-28T04:29:34.398Z,0
2017-02-28T04:30:45.132Z,0
2017-02-28T04:31:55.351Z,0
2017-02-28T04:33:05.711Z,0
2017-02-28T04:34:16.062Z,0
2017-02-28T04:35:26.412Z,0
2017-02-28T04:36:37.142Z,0
2017-02-28T04:37:48.137Z,0
2017-02-28T04:38:58.486Z,0
2017-02-28T04:40:08.826Z,0
2017-02-28T04:41:18.375Z,0
2017-02-28T04:42:29.127Z,0
2017-02-28T04:43:40.176Z,0
2017-02-28T04:44:50.506Z,0
2017-02-28T04:46:01.245Z,0
2017-02-28T04:47:12.016Z,0
2017-02-28T04:48:22.362Z,0
2017-02-28T04:49:33.428Z,0
2017-02-28T04:50:44.196Z,0
2017-02-28T04:51:54.926Z,0
2017-02-28T04:53:05.749Z,0
2017-02-28T04:54:16.131Z,0
2017-02-28T04:55:26.788Z,0
2017-02-28T04:56:36.746Z,0
2017-02-28T04:57:47.492Z,0
2017-02-28T04:58:58.239Z,0
2017-02-28T05:00:08.999Z,0
2017-02-28T05:01:19.198Z,0
2017-02-28T05:02:29.575Z,0
2017-02-28T05:03:40.338Z,0
2017-02-28T05:04:51.077Z,0
2017-02-28T05:06:00.648Z,0
2017-02-28T05:07:11.243Z,0
2017-02-28T05:08:21.603Z,0
2017-02-28T05:09:32.374Z,0
2017-02-28T05:10:42.712Z,0
2017-02-28T05:11:53.473Z,0
2017-02-28T05:13:03.736Z,0
2017-02-28T05:14:14.095Z,0
2017-02-28T05:15:24.850Z,0
2017-02-28T05:16:35.207Z,0
2017-02-28T05:17:45.567Z,0
2017-02-28T05:18:56.585Z,0
2017-02-28T05:20:06.959Z,0
2017-02-28T05:21:17.330Z,0
2017-02-28T05:22:27.301Z,0
2017-02-28T05:23:38.057Z,0
2017-02-28T05:24:49.045Z,0
2017-02-28T05:25:58.620Z,0
2017-02-28T05:27:08.571Z,0
2017-02-28T05:28:19.330Z,0
2017-02-28T05:29:30.079Z,0
2017-02-28T05:30:40.678Z,0
2017-02-28T05:31:50.265Z,0
2017-02-28T05:33:01.010Z,0
2017-02-28T05:34:11.748Z,0
2017-02-28T05:35:21.727Z,0
2017-02-28T05:36:31.932Z,0
2017-02-28T05:37:42.672Z,0
2017-02-28T05:38:53.020Z,0
2017-02-28T05:40:03.811Z,0
2017-02-28T05:41:14.162Z,0
2017-02-28T05:42:25.188Z,0
2017-02-28T05:43:35.542Z,0
2017-02-28T05:44:45.485Z,0
2017-02-28T05:45:55.852Z,0
2017-02-28T05:47:06.201Z,0
2017-02-28T05:48:17.264Z,0
2017-02-28T05:49:28.031Z,0
2017-02-28T05:50:38.412Z,0
2017-02-28T05:51:49.178Z,0
2017-02-28T05:52:59.529Z,0
2017-02-28T05:54:10.147Z,0
2017-02-28T05:55:20.892Z,0
2017-02-28T05:56:31.286Z,0
2017-02-28T05:57:41.251Z,0
2017-02-28T05:58:51.219Z,0
2017-02-28T06:00:01.840Z,0
2017-02-28T06:01:12.195Z,0
2017-02-28T06:02:22.937Z,0
2017-02-28T06:03:33.283Z,0
2017-02-28T06:04:43.233Z,0
2017-02-28T06:05:54.233Z,0
2017-02-28T06:07:04.195Z,0
2017-02-28T06:08:14.569Z,0
2017-02-28T06:09:25.319Z,0
2017-02-28T06:10:35.673Z,0
2017-02-28T06:11:46.284Z,0
2017-02-28T06:12:56.236Z,0
2017-02-28T06:14:06.589Z,0
2017-02-28T06:15:16.941Z,0
2017-02-28T06:16:26.915Z,0
2017-02-28T06:17:37.573Z,5
2017-02-28T06:18:48.361Z,5
2017-02-28T06:19:59.135Z,5
2017-02-28T06:21:09.891Z,5
2017-02-28T06:22:20.259Z,5
2017-02-28T06:23:30.861Z,5
2017-02-28T06:24:41.203Z,5
2017-02-28T06:25:51.929Z,5
2017-02-28T06:27:01.872Z,5
2017-02-28T06:28:11.837Z,5
2017-02-28T06:29:22.214Z,5
2017-02-28T06:30:32.185Z,5
2017-02-28T06:31:42.148Z,5
2017-02-28T06:32:52.906Z,5
2017-02-28T06:34:03.530Z,5
2017-02-28T06:35:14.295Z,5
2017-02-28T06:36:24.646Z,5
2017-02-28T06:37:35.409Z,5
2017-02-28T06:38:45.369Z,5
2017-02-28T06:39:56.071Z,5
2017-02-28T06:41:05.651Z,5
2017-02-28T06:42:15.596Z,5
2017-02-28T06:43:25.943Z,10
2017-02-28T06:44:36.311Z,5
2017-02-28T06:45:47.338Z,5
2017-02-28T06:46:57.298Z,5
2017-02-28T06:48:08.042Z,5
2017-02-28T06:49:17.222Z,5
2017-02-28T06:50:27.174Z,5
2017-02-28T06:51:37.952Z,10
2017-02-28T06:52:47.904Z,10
2017-02-28T06:53:58.259Z,10
2017-02-28T06:55:08.608Z,10
2017-02-28T06:56:19.467Z,10
2017-02-28T06:57:30.537Z,5
2017-02-28T06:58:41.014Z,10
2017-02-28T06:59:52.179Z,10
2017-02-28T07:01:03.075Z,10
2017-02-28T07:02:13.831Z,10
2017-02-28T07:03:24.042Z,10
2017-02-28T07:04:33.993Z,10
2017-02-28T07:05:43.560Z,10
2017-02-28T07:06:53.906Z,10
2017-02-28T07:08:04.695Z,10
2017-02-28T07:09:14.544Z,10
2017-02-28T07:10:25.327Z,15
2017-02-28T07:11:36.133Z,15
2017-02-28T07:12:46.113Z,15
2017-02-28T07:13:55.706Z,15
2017-02-28T07:15:05.968Z,15
2017-02-28T07:16:16.761Z,15
2017-02-28T07:17:27.179Z,15
2017-02-28T07:18:37.138Z,15
2017-02-28T07:19:47.529Z,15
2017-02-28T07:20:58.169Z,15
2017-02-28T07:22:08.912Z,15
2017-02-28T07:23:19.306Z,20
2017-02-28T07:24:30.067Z,20
2017-02-28T07:25:40.436Z,20
2017-02-28T07:26:50.668Z,20
2017-02-28T07:28:01.475Z,20
2017-02-28T07:29:12.241Z,25
2017-02-28T07:30:23.232Z,25
2017-02-28T07:31:34.005Z,25
2017-02-28T07:32:44.640Z,30
2017-02-28T07:33:55.471Z,25
2017-02-28T07:35:06.249Z,25
2017-02-28T07:36:17.017Z,20
2017-02-28T07:37:27.392Z,20
2017-02-28T07:38:37.643Z,25
2017-02-28T07:39:48.425Z,20
2017-02-28T07:40:58.780Z,25
2017-02-28T07:42:09.561Z,25
2017-02-28T07:43:19.592Z,20
2017-02-28T07:44:30.255Z,20
2017-02-28T07:45:41.070Z,15
2017-02-28T07:46:51.884Z,15
2017-02-28T07:48:01.613Z,20
2017-02-28T07:49:12.025Z,15
2017-02-28T07:50:22.296Z,20
2017-02-28T07:51:33.077Z,20
2017-02-28T07:52:43.874Z,20
2017-02-28T07:53:54.258Z,20
2017-02-28T07:55:04.709Z,20
2017-02-28T07:56:15.406Z,20
2017-02-28T07:57:25.790Z,15
2017-02-28T07:58:36.594Z,20
2017-02-28T07:59:46.993Z,25
2017-02-28T08:00:56.955Z,25
2017-02-28T08:02:07.559Z,30
2017-02-28T08:03:18.358Z,30
2017-02-28T08:04:28.759Z,30
2017-02-28T08:05:39.144Z,30
2017-02-28T08:06:49.169Z,35
2017-02-28T08:08:00.222Z,35
2017-02-28T08:09:10.670Z,30
2017-02-28T08:10:21.431Z,30
2017-02-28T08:11:32.279Z,30
2017-02-28T08:12:43.043Z,25
2017-02-28T08:13:53.296Z,25
2017-02-28T08:15:04.071Z,30
2017-02-28T08:16:14.474Z,30
2017-02-28T08:17:25.235Z,35
2017-02-28T08:18:35.622Z,35
2017-02-28T08:19:45.466Z,40
2017-02-28T08:20:55.424Z,40
2017-02-28T08:22:05.776Z,40
2017-02-28T08:23:16.553Z,40
2017-02-28T08:24:26.902Z,40
2017-02-28T08:25:37.936Z,40
2017-02-28T08:26:48.689Z,40
2017-02-28T08:27:58.681Z,45
2017-02-28T08:29:09.036Z,50
2017-02-28T08:30:19.401Z,55
2017-02-28T08:31:30.444Z,55
2017-02-28T08:32:41.238Z,60
2017-02-28T08:33:51.223Z,55
2017-02-28T08:35:01.977Z,55
2017-02-28T08:36:12.368Z,50
2017-02-28T08:37:23.158Z,50
2017-02-28T08:38:33.537Z,45
2017-02-28T08:39:43.894Z,40
2017-02-28T08:40:54.287Z,35
2017-02-28T08:42:04.706Z,45
2017-02-28T08:43:15.356Z,55
2017-02-28T08:44:26.186Z,50
2017-02-28T08:45:36.546Z,45
2017-02-28T08:46:46.943Z,45
2017-02-28T08:47:57.762Z,55
2017-02-28T08:49:08.812Z,55
2017-02-28T08:50:19.586Z,60
2017-02-28T08:51:29.549Z,60
2017-02-28T08:52:40.340Z,60
2017-02-28T08:53:50.729Z,60
2017-02-28T08:55:01.432Z,65
2017-02-28T08:56:12.199Z,65
2017-02-28T08:57:22.188Z,65
2017-02-28T08:58:32.979Z,70
2017-02-28T08:59:43.775Z,85
2017-02-28T09:00:54.440Z,85
2017-02-28T09:02:04.850Z,80
2017-02-28T09:03:15.218Z,80
2017-02-28T09:04:25.899Z,80
2017-02-28T09:05:36.664Z,80
2017-02-28T09:06:47.681Z,80
2017-02-28T09:07:58.031Z,85
2017-02-28T09:09:08.418Z,80
2017-02-28T09:10:19.198Z,80
2017-02-28T09:11:28.969Z,70
2017-02-28T09:12:40.072Z,75
2017-02-28T09:13:50.441Z,75
2017-02-28T09:15:01.199Z,75
2017-02-28T09:16:11.976Z,75
2017-02-28T09:17:22.741Z,70
2017-02-28T09:18:33.777Z,75
2017-02-28T09:19:44.537Z,70
2017-02-28T09:20:54.917Z,70
2017-02-28T09:22:05.302Z,70
2017-02-28T09:23:15.676Z,65
2017-02-28T09:24:26.722Z,70
2017-02-28T09:25:36.742Z,75
2017-02-28T09:26:47.475Z,80
2017-02-28T09:27:57.824Z,75
2017-02-28T09:29:07.417Z,85
2017-02-28T09:30:18.476Z,90
2017-02-28T09:31:28.421Z,90
2017-02-28T09:32:38.385Z,85
2017-02-28T09:33:48.732Z,90
2017-02-28T09:34:59.165Z,90
2017-02-28T09:36:10.239Z,95
2017-02-28T09:37:20.210Z,95
2017-02-28T09:38:30.181Z,95
2017-02-28T09:39:40.575Z,100
2017-02-28T09:40:50.938Z,100
2017-02-28T09:42:01.549Z,100
2017-02-28T09:43:11.549Z,95
2017-02-28T09:44:21.500Z,90
2017-02-28T09:45:31.856Z,90
2017-02-28T09:46:41.830Z,90
2017-02-28T09:47:52.893Z,90
2017-02-28T09:49:02.847Z,90
2017-02-28T09:50:13.657Z,90
2017-02-28T09:51:24.028Z,95
2017-02-28T09:52:34.806Z,95
2017-02-28T09:53:45.843Z,100
2017-02-28T09:54:55.798Z,95
2017-02-28T09:56:05.775Z,95
2017-02-28T09:57:16.141Z,95
2017-02-28T09:58:26.133Z,95
2017-02-28T09:59:41.011Z,95
2017-02-28T10:00:51.393Z,95
2017-02-28T10:02:02.141Z,95
2017-02-28T10:03:12.115Z,95
2017-02-28T10:04:22.902Z,95
2017-02-28T10:05:32.779Z,95
2017-02-28T10:06:42.761Z,95
2017-02-28T10:07:53.178Z,90
2017-02-28T10:09:03.556Z,90
2017-02-28T10:10:14.323Z,90
2017-02-28T10:11:25.395Z,95
2017-02-28T10:12:35.774Z,95
2017-02-28T10:13:46.528Z,100
2017-02-28T10:14:56.908Z,105
2017-02-28T10:16:07.654Z,105
2017-02-28T10:17:17.868Z,105
2017-02-28T10:18:28.244Z,75
2017-02-28T10:19:38.617Z,70
2017-02-28T10:20:48.599Z,70
2017-02-28T10:21:59.373Z,70
2017-02-28T10:23:10.390Z,105
2017-02-28T10:24:21.153Z,100
2017-02-28T10:25:31.527Z,105
2017-02-28T10:26:41.863Z,105
2017-02-28T10:27:52.240Z,105
2017-02-28T10:29:02.513Z,105
2017-02-28T10:30:12.875Z,105
2017-02-28T10:31:23.722Z,105
2017-02-28T10:32:34.468Z,105
2017-02-28T10:33:45.216Z,110
2017-02-28T10:34:56.201Z,110
2017-02-28T10:36:06.169Z,105
2017-02-28T10:37:16.534Z,90
2017-02-28T10:38:26.880Z,70
2017-02-28T10:39:37.466Z,65
2017-02-28T10:40:47.424Z,80
2017-02-28T10:41:57.773Z,65
2017-02-28T10:43:08.179Z,45
2017-02-28T10:44:18.550Z,30
2017-02-28T10:45:29.930Z,40
2017-02-28T10:46:39.968Z,40
2017-02-28T10:47:50.679Z,45
2017-02-28T10:49:01.478Z,40
2017-02-28T10:50:11.463Z,45
2017-02-28T10:51:22.150Z,40
2017-02-28T10:52:32.886Z,40
2017-02-28T10:53:43.265Z,40
2017-02-28T10:54:53.646Z,35
2017-02-28T10:56:04.433Z,30
2017-02-28T10:57:15.190Z,40
2017-02-28T10:58:25.561Z,40
2017-02-28T10:59:35.957Z,40
2017-02-28T11:00:46.740Z,35
2017-02-28T11:01:56.951Z,60
2017-02-28T11:03:07.296Z,70
2017-02-28T11:04:18.039Z,65
2017-02-28T11:05:28.386Z,65
2017-02-28T11:06:38.729Z,75
2017-02-28T11:07:49.744Z,95
2017-02-28T11:08:59.746Z,115
2017-02-28T11:10:10.496Z,95
2017-02-28T11:11:20.096Z,95
2017-02-28T11:12:30.850Z,105
2017-02-28T11:13:41.098Z,85
2017-02-28T11:14:51.912Z,85
2017-02-28T11:16:02.296Z,90
2017-02-28T11:17:12.243Z,105
2017-02-28T11:18:22.612Z,115
2017-02-28T11:19:32.840Z,105
2017-02-28T11:20:43.587Z,115
2017-02-28T11:21:53.572Z,95
2017-02-28T11:23:03.540Z,100
2017-02-28T11:24:13.927Z,90
2017-02-28T11:25:24.998Z,75
2017-02-28T11:26:34.964Z,70
2017-02-28T11:27:44.922Z,65
2017-02-28T11:28:55.702Z,65
2017-02-28T11:30:06.473Z,70
2017-02-28T11:31:17.236Z,75
2017-02-28T11:32:27.987Z,115
2017-02-28T11:33:38.426Z,95
2017-02-28T11:34:48.808Z,100
2017-02-28T11:35:59.405Z,110
2017-02-28T11:37:09.767Z,105
2017-02-28T11:38:19.732Z,90
2017-02-28T11:39:30.115Z,105
2017-02-28T11:40:40.478Z,95
2017-02-28T11:41:51.243Z,120
2017-02-28T11:43:02.012Z,135
2017-02-28T11:44:12.794Z,110
2017-02-28T11:45:23.158Z,70
2017-02-28T11:46:34.241Z,75
2017-02-28T11:47:44.640Z,100
2017-02-28T11:48:54.217Z,100
2017-02-28T11:50:04.599Z,75
2017-02-28T11:51:15.350Z,95
2017-02-28T11:52:25.976Z,100
2017-02-28T11:53:36.362Z,80
2017-02-28T11:54:46.318Z,100
2017-02-28T11:55:55.905Z,90
2017-02-28T11:57:06.350Z,85
2017-02-28T11:58:16.624Z,65
2017-02-28T11:59:26.992Z,55
2017-02-28T12:00:37.783Z,55
2017-02-28T12:01:48.553Z,55
2017-02-28T12:02:59.324Z,55
2017-02-28T12:04:09.571Z,65
2017-02-28T12:05:19.161Z,55
2017-02-28T12:06:29.524Z,55
2017-02-28T12:07:39.529Z,55
2017-02-28T12:08:50.089Z,55
2017-02-28T12:10:01.152Z,55
2017-02-28T12:11:11.494Z,55
2017-02-28T12:12:21.882Z,55
2017-02-28T12:13:32.263Z,55
2017-02-28T12:14:42.241Z,60
2017-02-28T12:15:52.863Z,55
2017-02-28T12:17:03.667Z,55
2017-02-28T12:18:14.442Z,55
2017-02-28T12:19:25.210Z,55
2017-02-28T12:20:35.991Z,55
2017-02-28T12:21:46.604Z,65
2017-02-28T12:22:56.602Z,60
2017-02-28T12:24:07.365Z,55
2017-02-28T12:25:17.779Z,55
2017-02-28T12:26:28.159Z,50
2017-02-28T12:27:38.826Z,50
2017-02-28T12:28:49.923Z,50
2017-02-28T12:30:00.291Z,50
2017-02-28T12:31:10.276Z,50
2017-02-28T12:32:20.243Z,50
2017-02-28T12:33:30.102Z,50
2017-02-28T12:34:40.106Z,50
2017-02-28T12:35:50.483Z,50
2017-02-28T12:37:01.492Z,50
2017-02-28T12:38:12.266Z,50
2017-02-28T12:39:23.277Z,45
2017-02-28T12:40:34.061Z,50
2017-02-28T12:41:44.432Z,50
2017-02-28T12:42:54.810Z,50
2017-02-28T12:44:04.785Z,55
2017-02-28T12:45:15.057Z,60
2017-02-28T12:46:25.408Z,75
2017-02-28T12:47:35.376Z,85
2017-02-28T12:48:45.753Z,75
2017-02-28T12:49:56.500Z,70
2017-02-28T12:51:07.578Z,65
2017-02-28T12:52:18.343Z,65
2017-02-28T12:53:28.720Z,55
2017-02-28T12:54:39.487Z,50
2017-02-28T12:55:49.843Z,50
2017-02-28T12:57:00.097Z,50
2017-02-28T12:58:10.672Z,50
2017-02-28T12:59:21.481Z,50
2017-02-28T13:00:32.253Z,50
2017-02-28T13:01:42.603Z,50
2017-02-28T13:02:53.651Z,50
2017-02-28T13:04:04.414Z,50
2017-02-28T13:05:14.791Z,60
2017-02-28T13:06:25.146Z,70
2017-02-28T13:07:35.501Z,60
2017-02-28T13:08:45.722Z,55
2017-02-28T13:09:56.480Z,70
2017-02-28T13:11:06.503Z,60
2017-02-28T13:12:17.273Z,55
2017-02-28T13:13:27.642Z,50
2017-02-28T13:14:38.948Z,55
2017-02-28T13:15:48.907Z,50
2017-02-28T13:16:59.287Z,50
2017-02-28T13:18:09.649Z,50
2017-02-28T13:19:19.210Z,60
2017-02-28T13:20:29.491Z,60
2017-02-28T13:21:40.257Z,60
2017-02-28T13:22:50.634Z,60
2017-02-28T13:24:01.428Z,55
2017-02-28T13:25:11.790Z,60
2017-02-28T13:26:22.856Z,55
2017-02-28T13:27:33.197Z,45
2017-02-28T13:28:43.173Z,55
2017-02-28T13:29:53.918Z,45
2017-02-28T13:31:04.277Z,40
2017-02-28T13:32:14.571Z,50
2017-02-28T13:33:24.545Z,50
2017-02-28T13:34:34.513Z,45
2017-02-28T13:35:44.484Z,50
2017-02-28T13:36:54.865Z,65
2017-02-28T13:38:05.975Z,75
2017-02-28T13:39:16.750Z,65
2017-02-28T13:40:27.521Z,50
2017-02-28T13:41:37.892Z,45
2017-02-28T13:42:48.636Z,45
2017-02-28T13:43:58.853Z,45
2017-02-28T13:45:08.823Z,50
2017-02-28T13:46:19.182Z,50
2017-02-28T13:47:29.576Z,60
2017-02-28T13:48:39.939Z,65
2017-02-28T13:49:50.229Z,70
2017-02-28T13:51:00.187Z,60
2017-02-28T13:52:10.955Z,65
2017-02-28T13:53:21.310Z,55
2017-02-28T13:54:31.264Z,65
2017-02-28T13:55:41.920Z,80
2017-02-28T13:56:52.692Z,80
2017-02-28T13:58:03.060Z,65
2017-02-28T13:59:13.425Z,60
2017-02-28T14:00:24.174Z,50
2017-02-28T14:01:34.862Z,55
2017-02-28T14:02:45.665Z,70
2017-02-28T14:03:56.026Z,80
2017-02-28T14:05:06.804Z,70
2017-02-28T14:06:17.601Z,55
2017-02-28T14:07:27.476Z,55
2017-02-28T14:08:37.414Z,50
2017-02-28T14:09:47.393Z,60
2017-02-28T14:10:57.738Z,65
2017-02-28T14:12:08.501Z,65
2017-02-28T14:13:23.421Z,75
2017-02-28T14:14:33.802Z,70
2017-02-28T14:15:44.572Z,65
2017-02-28T14:16:54.933Z,55
2017-02-28T14:18:05.811Z,55
2017-02-28T14:19:16.840Z,60
2017-02-28T14:20:27.612Z,70
2017-02-28T14:21:37.172Z,80
2017-02-28T14:22:47.951Z,75
2017-02-28T14:23:58.763Z,70
2017-02-28T14:25:09.758Z,70
2017-02-28T14:26:20.127Z,65
2017-02-28T14:27:30.490Z,65
2017-02-28T14:28:40.846Z,50
2017-02-28T14:29:51.589Z,40
2017-02-28T14:31:02.602Z,40
2017-02-28T14:32:12.561Z,35
2017-02-28T14:33:22.529Z,35
2017-02-28T14:34:32.938Z,35
2017-02-28T14:35:43.708Z,35
2017-02-28T14:36:54.363Z,35
2017-02-28T14:38:04.351Z,35
2017-02-28T14:39:14.712Z,35
2017-02-28T14:40:25.084Z,35
2017-02-28T14:41:35.834Z,35
2017-02-28T14:42:46.827Z,35
2017-02-28T14:43:57.575Z,40
2017-02-28T14:45:08.327Z,40
2017-02-28T14:46:18.299Z,50
2017-02-28T14:47:29.077Z,45
2017-02-28T14:48:39.710Z,40
2017-02-28T14:49:50.467Z,35
2017-02-28T14:51:01.251Z,35
2017-02-28T14:52:12.011Z,35
2017-02-28T14:53:22.390Z,35
2017-02-28T14:54:33.387Z,40
2017-02-28T14:55:43.745Z,40
2017-02-28T14:56:53.702Z,50
2017-02-28T14:58:04.064Z,65
2017-02-28T14:59:14.827Z,70
2017-02-28T15:00:25.498Z,65
2017-02-28T15:01:35.901Z,45
2017-02-28T15:02:46.271Z,40
2017-02-28T15:03:56.241Z,40
2017-02-28T15:05:06.615Z,35
2017-02-28T15:06:16.429Z,35
2017-02-28T15:07:26.407Z,35
2017-02-28T15:08:37.204Z,35
2017-02-28T15:09:47.585Z,35
2017-02-28T15:10:57.959Z,35
2017-02-28T15:12:08.963Z,35
2017-02-28T15:13:19.699Z,35
2017-02-28T15:14:30.114Z,40
2017-02-28T15:15:40.864Z,35
2017-02-28T15:16:51.268Z,25
2017-02-28T15:18:01.888Z,25
2017-02-28T15:19:12.659Z,25
2017-02-28T15:20:23.644Z,30
2017-02-28T15:21:34.026Z,35
2017-02-28T15:22:44.770Z,45
2017-02-28T15:23:55.839Z,45
2017-02-28T15:25:05.811Z,35
2017-02-28T15:26:16.588Z,35
2017-02-28T15:27:26.166Z,35
2017-02-28T15:28:36.522Z,35
2017-02-28T15:29:47.539Z,30
2017-02-28T15:30:57.888Z,30
2017-02-28T15:32:08.623Z,25
2017-02-28T15:33:19.004Z,25
2017-02-28T15:34:29.753Z,25
2017-02-28T15:35:40.410Z,30
2017-02-28T15:36:50.783Z,25
2017-02-28T15:38:01.557Z,15
2017-02-28T15:39:12.316Z,20
2017-02-28T15:40:21.881Z,20
2017-02-28T15:41:32.915Z,20
2017-02-28T15:42:43.666Z,20
2017-02-28T15:43:53.673Z,20
2017-02-28T15:45:03.641Z,20
2017-02-28T15:46:14.412Z,15
2017-02-28T15:47:25.478Z,20
2017-02-28T15:48:36.249Z,20
2017-02-28T15:49:46.623Z,25
2017-02-28T15:50:57.394Z,25
2017-02-28T15:52:07.371Z,30
2017-02-28T15:53:18.022Z,30
2017-02-28T15:54:28.792Z,25
2017-02-28T15:55:39.556Z,20
2017-02-28T15:56:50.325Z,20
2017-02-28T15:58:00.294Z,15
2017-02-28T15:59:10.559Z,15
2017-02-28T16:00:20.891Z,15
2017-02-28T16:01:30.455Z,15
2017-02-28T16:02:40.001Z,15
2017-02-28T16:03:50.342Z,15
2017-02-28T16:05:00.552Z,15
2017-02-28T16:06:11.295Z,15
2017-02-28T16:07:22.039Z,10
2017-02-28T16:08:32.774Z,10
2017-02-28T16:09:43.114Z,10
2017-02-28T16:10:53.791Z,10
2017-02-28T16:12:04.140Z,10
2017-02-28T16:13:14.097Z,10
2017-02-28T16:14:24.462Z,10
2017-02-28T16:15:34.007Z,10
2017-02-28T16:16:44.627Z,10
2017-02-28T16:17:54.612Z,10
2017-02-28T16:19:04.945Z,10
2017-02-28T16:20:15.296Z,5
2017-02-28T16:21:25.236Z,5
2017-02-28T16:22:35.481Z,5
2017-02-28T16:23:45.812Z,5
2017-02-28T16:24:56.566Z,5
2017-02-28T16:26:07.315Z,5
2017-02-28T16:27:18.086Z,5
2017-02-28T16:28:29.104Z,5
2017-02-28T16:29:39.484Z,5
2017-02-28T16:30:50.240Z,5
2017-02-28T16:32:00.621Z,0
2017-02-28T16:33:10.998Z,0
2017-02-28T16:34:21.993Z,0
2017-02-28T16:35:32.342Z,0
2017-02-28T16:36:42.317Z,0
2017-02-28T16:37:51.898Z,0
2017-02-28T16:39:01.860Z,0
2017-02-28T16:40:11.737Z,0
2017-02-28T16:41:22.499Z,0
2017-02-28T16:42:32.887Z,0
2017-02-28T16:43:42.490Z,0
2017-02-28T16:44:52.455Z,0
2017-02-28T16:46:03.469Z,0
2017-02-28T16:47:13.427Z,0
2017-02-28T16:48:23.786Z,0
2017-02-28T16:49:34.167Z,0
2017-02-28T16:50:44.926Z,0
2017-02-28T16:51:55.943Z,0
2017-02-28T16:53:06.696Z,0
2017-02-28T16:54:16.685Z,0
2017-02-28T16:55:26.629Z,0
2017-02-28T16:56:36.207Z,0
2017-02-28T16:57:46.844Z,0
2017-02-28T16:58:56.760Z,0